Details From LYTV - Tivat
To LICR - Reggio Calabria
Flight Number -
Tags decoded
Created
Modified
Stats Distance 312 nm / 578 km
Max Altitude 0 ft / 0 m
Waypoints 7
Social Downloads 1
Likes 0
Share VATSIM

Download

Looking for another format? Having issues loading an existing format? Contact us
Advertisement - Login to hide

Notes

Requested: LYTV LASTI DOLON MOKTO SIRGI PAOLA LICR

Route

LYTV LASTI DOLON MOKTO SIRGI PAOLA LICR

ID Type Via Altitude Latitude Longitude Leg Dist Tot Dist Heading (true) Name
O LYTV APT - 0 ft / 0 m 42.40466˚ 18.72329˚ - 0 nm - Tivat
LASTI FIX - 0 ft / 0 m 42.10044˚ 18.88508˚ 19 nm 19 nm 158° / 159° -
DOLON FIX - 0 ft / 0 m 40.88917˚ 17.59444˚ 93 nm 112 nm 219° / 218° -
MOKTO FIX - 0 ft / 0 m 40.61444˚ 17.17417˚ 25 nm 137 nm 229° / 229° -
SIRGI FIX - 0 ft / 0 m 40.13056˚ 16.70361˚ 36 nm 174 nm 217° / 216° -
PAOLA FIX - 0 ft / 0 m 39.61500˚ 16.03917˚ 43 nm 217 nm 225° / 224° -
O LICR APT - 0 ft / 0 m 38.07257˚ 15.64932˚ 94 nm 312 nm 191° / 191° Reggio Calabria

Altitude Profile

Advertisement - Login to hide

Weather


0- 5 10 15 20 25 30 35+ Temperature / ° C

Clouds and Precipitation
Forecast for 2017-12-17 06:00 UTC. Updated an hour ago

Ground ~20,000 ft ~40,000 ft Winds

LYTV

Details ICAO LYTV (TIV)
Name Tivat
Region Serbia and Montenegro
Timezone Europe/Podgorica (UTC+1.0)
Stats Elevation 20 ft / 6 m (AMSL)
Location 42.404657° 18.723295°
Runways 1
Magnetic Variation 4.163° E

METAR

LYTV 170600Z VRB02KT 9999 FEW030 SCT033 BKN070 07/07 Q1009 NOSIG

Decode

TAF

TAF LYTV 170500Z 1706/1806 12005KT 9999 BKN030 BKN080 TX11/1713Z TN05/1806Z TEMPO 1706/1712 RA BECMG 1715/1717 02016G28KT

Decode

Departure Runways

ID Width Length Bearing (true) Bearing (mag) Surface Threshold Offset Overrun Length
14 148 ft / 45 m 8,206 ft / 2,501 m 139.03° 134.87° Asphalt 300 ft / 91 m 0 ft / 0 m
32 148 ft / 45 m 8,206 ft / 2,501 m 319.04° 314.88° Asphalt 300 ft / 91 m 0 ft / 0 m

LICR

Details ICAO LICR (REG)
Name Reggio Calabria
Region Italy
Timezone Europe/Rome (UTC+1.0)
Stats Elevation 96 ft / 29 m (AMSL)
Location 38.072573° 15.649317°
Runways 2
Magnetic Variation 3.346° E

METAR

LICR 170550Z 05004KT 320V100 9999 FEW060 13/02 Q1013

Decode

TAF

TAF LICR 170500Z 1706/1806 35010KT 9999 SCT030 TEMPO 1706/1709 4000 TSRA TEMPO 1715/1806 4000 SHRA

Decode

Destination Runways

ID Width Length Bearing (true) Bearing (mag) Surface Threshold Offset Overrun Length
11 148 ft / 45 m 6,123 ft / 1,866 m 111.76° 108.41° Asphalt 203 ft / 62 m 0 ft / 0 m
15 148 ft / 45 m 6,640 ft / 2,024 m 151.90° 148.55° Asphalt 784 ft / 239 m 0 ft / 0 m
29 148 ft / 45 m 6,123 ft / 1,866 m 291.77° 288.42° Asphalt 157 ft / 48 m 0 ft / 0 m
33 148 ft / 45 m 6,640 ft / 2,024 m 331.90° 328.55° Asphalt 659 ft / 201 m 0 ft / 0 m

Approach Navaids

Runway Type Ident Frequency Range Bearing (true) Bearing (mag) Slope Elevation
33 Localiser REG 109.30 MHz 18 nm / 33 km 19.16° 15.82° - 95 ft / 29 m (AMSL)

Popular Alternatives